Aeroporto :
LOGIN :

Iscrizione | Disclaimer

   EN    FR    IT 

 










Sommario :    VFR   VFR Marginale   IFR   IFR Intensivo   IFR Molto Intensivo
Visibilità : 
Base nubi : 
>= 8 km
>= 3000ft
5 / 8 km
1000 / 3000 ft
1500m / 5 km
500 / 1000 ft
800 / 1500m
200 / 500 ft
< 800m
< 200 ft
Simboli :   Temporali  Nebbia  Neve Forte  Precipitazioni Forti  Vento > 20 kt
SIGMETs :   Varie  Temporali  Ghiacco  Turbolenza  Onda orograficha  Ceneri Vulcaniche






- Altitudine del aeroporto : 0 ft


ENSL - Sleipner A Platform

ULTIMO METAR :
  • 211550Z AUTO 23040KT 9999NDV FEW033/// BKN041/// 09/06 Q0993 W05/S6

METARs OBSOLETI :
  • 211520Z AUTO 23046KT 9000NDV BKN045/// BKN052/// 09/06 Q0993 W05/S6
  • 211450Z AUTO 23046KT 9999NDV FEW018/// BKN030/// 09/06 Q0993 W05/S6
  • 211420Z AUTO 23049KT 9000NDV FEW038/// BKN047/// 09/06 Q0992 W05/S6
  • 211350Z AUTO 23047KT 9000NDV FEW015/// 08/06 Q0992 W05/S6
  • 211320Z AUTO 23049KT 9999NDV SCT016/// BKN180/// 08/05 Q0992 W05/S6

Previsioni scadute.



MetMap, La meteo Aeronautica in un colpo d'occhio ! - Copyright ORBIFLY Dicembre 2007 - Disclaimer

ORBIFLY MET'MAP TEAM :

Programmazione e sviluppo : Alexandra Zaïnal
Concezione : Baudouin d'Aumeries
Aiuto per la programmazione : Marc-Olivier Méhu
Supporto tecnico e logistico : Manuel Goepfert
Aiuto per la traduzione : Arnaldo La Scala

Contatto : metmap@orbifly.com




FONTI E CREDITI :

   NOAA